Terminal Aerodrome Forecast
Issued by NWS Chicago, IL

Home | Current Version | Previous Version | Text Only | Print | Product List | Glossary On
Versions: 1 2 3 4 5 6 7 8 9 10 11 12 13 14 15 16 17 18 19 20 21 22 23 24 25 26 27 28 29
000
FTUS43 KLOT 291130
TAFRFD
TAF
KRFD 291130Z 2912/3012 17010KT P6SM SCT035 BKN100
     FM291600 19012G17KT P6SM VCTS BKN035CB
      TEMPO 2917/2919 3SM TSRA SCT020 OVC035CB
     FM292000 22014G21KT P6SM BKN035
     FM300000 24007KT P6SM VCTS SCT045CB BKN250
     FM300500 23008KT P6SM VCSH BKN045
     FM301000 35008KT 4SM SHRA VCTS SCT020 OVC040CB=

USA.gov is the U.S. government's official web portal to all federal, state and local government web resources and services.